Time;durP1;ratioP1;P1;durP2;ratioP2;P2;SDS_P1;SDS_P2;PMS_P1;PMS_P2;Temp;Humidity;BMP_temperature;BMP_pressure;BME280_temperature;BME280_humidity;BME280_pressure;Samples;Min_cycle;Max_cycle;Signal;HPM_P1;HPM_P2
2023/03/31 00:01:41;;;;;;;1.33;1.23;;;19.00;55.70;;;;;;5035511;28;20203;-71
2023/03/31 00:04:11;;;;;;;1.48;1.20;;;19.00;55.70;;;;;;5019589;28;20195;-70
2023/03/31 00:06:40;;;;;;;1.63;1.20;;;19.00;55.70;;;;;;5036981;28;20191;-70
2023/03/31 00:09:17;;;;;;;1.05;0.98;;;19.00;55.70;;;;;;5001141;28;20187;-70
2023/03/31 00:11:44;;;;;;;2.53;1.30;;;19.00;55.70;;;;;;4999939;28;20192;-70
2023/03/31 00:14:11;;;;;;;1.20;1.10;;;19.00;55.80;;;;;;4999295;28;20169;-70
2023/03/31 00:16:38;;;;;;;1.38;1.27;;;19.00;55.70;;;;;;5005607;28;20203;-71
2023/03/31 00:19:08;;;;;;;1.85;1.13;;;19.00;55.70;;;;;;4987834;28;20660;-70
2023/03/31 00:21:35;;;;;;;1.38;1.10;;;19.00;55.70;;;;;;5001914;28;20231;-70
2023/03/31 00:24:05;;;;;;;2.85;1.40;;;19.00;55.70;;;;;;5023727;28;20238;-70
2023/03/31 00:26:33;;;;;;;1.48;1.20;;;19.00;55.70;;;;;;5016991;28;20180;-71
2023/03/31 00:28:59;;;;;;;2.15;1.35;;;19.00;55.70;;;;;;5016714;28;20192;-70
2023/03/31 00:31:26;;;;;;;1.67;1.33;;;19.00;55.70;;;;;;5006437;28;20199;-71
2023/03/31 00:33:53;;;;;;;1.63;1.20;;;19.00;56.30;;;;;;4979946;28;20231;-70
2023/03/31 00:36:26;;;;;;;2.25;1.40;;;19.00;55.70;;;;;;4999276;28;20211;-70
2023/03/31 00:39:08;;;;;;;1.65;1.45;;;19.00;55.70;;;;;;5017025;28;20181;-70
2023/03/31 00:41:36;;;;;;;2.45;1.48;;;19.00;55.70;;;;;;4983222;28;20255;-70
2023/03/31 00:44:23;;;;;;;1.70;1.40;;;19.00;55.70;;;;;;5016887;28;20246;-70
2023/03/31 00:47:01;;;;;;;1.92;1.27;;;19.00;55.70;;;;;;5006085;28;20232;-71
2023/03/31 00:49:40;;;;;;;2.03;1.10;;;19.00;55.70;;;;;;5006067;28;20354;-70
2023/03/31 00:52:37;;;;;;;2.00;1.38;;;19.00;55.70;;;;;;5029134;28;20195;-70
2023/03/31 00:55:11;;;;;;;1.52;1.15;;;19.00;55.70;;;;;;4992502;28;20227;-70
2023/03/31 00:57:42;;;;;;;1.75;1.30;;;19.00;55.70;;;;;;4982061;28;20212;-70
2023/03/31 01:00:14;;;;;;;1.40;1.25;;;19.00;55.70;;;;;;4998014;28;20208;-70
2023/03/31 01:02:57;;;;;;;1.33;0.93;;;19.00;55.70;;;;;;4999279;28;20184;-70
2023/03/31 01:06:02;;;;;;;1.55;0.90;;;19.00;55.70;;;;;;4979399;28;20189;-70
2023/03/31 01:08:30;;;;;;;2.22;1.30;;;19.00;55.70;;;;;;4978885;28;20583;-70
2023/03/31 01:11:03;;;;;;;1.95;1.00;;;19.00;55.70;;;;;;5010952;28;20224;-71
2023/03/31 01:13:30;;;;;;;1.50;1.23;;;19.00;56.20;;;;;;5007408;28;20187;-70
2023/03/31 01:15:56;;;;;;;1.60;1.50;;;19.00;55.70;;;;;;5014866;28;20223;-70
2023/03/31 01:18:26;;;;;;;2.05;1.30;;;19.00;55.70;;;;;;5006635;28;20248;-71
2023/03/31 01:21:32;;;;;;;2.03;1.40;;;18.90;55.60;;;;;;5015805;28;20208;-70
2023/03/31 01:24:10;;;;;;;2.05;1.20;;;18.90;55.60;;;;;;4978398;28;20638;-70
2023/03/31 01:26:53;;;;;;;1.80;1.30;;;19.00;55.70;;;;;;5015245;28;20191;-70
2023/03/31 01:30:08;;;;;;;1.95;1.10;;;19.00;55.60;;;;;;4997772;28;20216;-70
2023/03/31 01:33:13;;;;;;;1.75;1.50;;;18.90;55.60;;;;;;4978606;28;20188;-71
2023/03/31 01:35:53;;;;;;;1.23;1.13;;;18.90;55.60;;;;;;4992227;28;20191;-70
2023/03/31 01:39:06;;;;;;;1.25;1.15;;;19.00;55.70;;;;;;4982108;28;20283;-70
2023/03/31 01:41:47;;;;;;;1.92;1.13;;;18.90;55.60;;;;;;4999640;28;20246;-70
2023/03/31 01:44:50;;;;;;;2.65;1.33;;;18.90;55.60;;;;;;5023871;28;20247;-70
2023/03/31 01:47:39;;;;;;;1.55;1.40;;;19.00;55.70;;;;;;4988196;28;20241;-70
2023/03/31 01:50:26;;;;;;;1.10;1.10;;;18.90;55.60;;;;;;4997033;28;20223;-70
2023/03/31 01:53:02;;;;;;;3.25;1.30;;;19.00;55.60;;;;;;4997982;28;20666;-70
2023/03/31 01:55:38;;;;;;;1.20;1.02;;;19.00;55.60;;;;;;4977871;28;20194;-70
2023/03/31 01:58:47;;;;;;;2.17;1.30;;;19.00;55.70;;;;;;4978233;28;20401;-70
2023/03/31 02:01:25;;;;;;;1.30;1.20;;;19.00;55.70;;;;;;4983087;28;20232;-70
2023/03/31 02:04:07;;;;;;;1.95;1.30;;;18.90;55.60;;;;;;5014355;28;20176;-70
2023/03/31 02:06:45;;;;;;;1.58;1.33;;;18.90;55.60;;;;;;4999140;28;20725;-70
2023/03/31 02:09:21;;;;;;;1.58;1.25;;;18.90;55.60;;;;;;4997787;28;20180;-71
2023/03/31 02:11:49;;;;;;;2.63;1.35;;;19.00;55.60;;;;;;5008658;28;20187;-70
2023/03/31 02:14:22;;;;;;;1.85;1.27;;;18.90;55.60;;;;;;5007352;28;20307;-70
2023/03/31 02:16:57;;;;;;;1.88;1.30;;;19.00;55.70;;;;;;5003472;28;20310;-70
2023/03/31 02:19:30;;;;;;;1.48;1.38;;;19.00;55.70;;;;;;5009045;28;20202;-70
2023/03/31 02:21:58;;;;;;;1.88;1.33;;;19.00;55.70;;;;;;5013972;28;20211;-71
2023/03/31 02:24:28;;;;;;;2.08;1.30;;;19.00;55.70;;;;;;4997901;28;20196;-70
2023/03/31 02:27:25;;;;;;;1.80;1.10;;;19.00;55.70;;;;;;5018372;28;20188;-70
2023/03/31 02:29:53;;;;;;;1.80;1.15;;;18.90;55.60;;;;;;4980697;28;20214;-70
2023/03/31 02:32:38;;;;;;;1.55;1.45;;;19.00;55.70;;;;;;5012717;28;20188;-70
2023/03/31 02:35:10;;;;;;;2.03;1.27;;;19.00;55.70;;;;;;4986406;28;20270;-70
2023/03/31 02:37:38;;;;;;;1.27;1.17;;;19.00;55.70;;;;;;5032422;28;20214;-70
2023/03/31 02:40:20;;;;;;;1.30;1.20;;;18.90;55.70;;;;;;4983558;28;20208;-70
2023/03/31 02:42:48;;;;;;;2.55;1.50;;;18.90;55.70;;;;;;5001839;28;20180;-70
2023/03/31 02:45:49;;;;;;;1.45;1.35;;;18.90;55.60;;;;;;4996196;28;20219;-70
2023/03/31 02:48:22;;;;;;;1.52;1.20;;;19.00;55.70;;;;;;5010901;28;20195;-70
2023/03/31 02:51:07;;;;;;;1.42;1.30;;;18.90;55.70;;;;;;4999228;28;20278;-70
2023/03/31 02:53:59;;;;;;;1.98;1.20;;;18.90;55.70;;;;;;5004483;28;20199;-70
2023/03/31 02:57:21;;;;;;;2.60;1.80;;;19.00;55.70;;;;;;4981810;28;20216;-70
2023/03/31 03:00:15;;;;;;;1.75;1.38;;;18.90;55.70;;;;;;5001896;28;20307;-70
2023/03/31 03:03:05;;;;;;;2.63;1.35;;;18.90;55.70;;;;;;5007263;28;20184;-70
2023/03/31 03:06:13;;;;;;;2.65;1.20;;;18.90;55.70;;;;;;4996522;28;20184;-70
2023/03/31 03:09:15;;;;;;;1.40;1.30;;;18.90;55.70;;;;;;5012134;28;20278;-70
2023/03/31 03:12:30;;;;;;;1.63;1.35;;;18.90;55.70;;;;;;5010911;28;20199;-70
2023/03/31 03:15:13;;;;;;;1.77;1.67;;;19.00;55.80;;;;;;5012705;28;20199;-70
2023/03/31 03:17:47;;;;;;;1.58;1.48;;;18.90;55.70;;;;;;5000424;28;20303;-70
2023/03/31 03:20:15;;;;;;;2.35;1.70;;;18.90;55.70;;;;;;5014469;28;20208;-70
2023/03/31 03:22:41;;;;;;;1.98;1.20;;;18.90;55.70;;;;;;5016352;28;20282;-70
2023/03/31 03:25:10;;;;;;;1.70;1.50;;;18.90;55.70;;;;;;5020712;28;20186;-70
2023/03/31 03:27:38;;;;;;;1.80;1.70;;;18.90;55.70;;;;;;4999555;28;20188;-70
2023/03/31 03:30:08;;;;;;;1.50;1.40;;;19.00;55.80;;;;;;5023124;28;20224;-70
2023/03/31 03:32:34;;;;;;;1.83;1.42;;;18.90;55.70;;;;;;4999866;28;20242;-70
2023/03/31 03:35:01;;;;;;;2.30;1.42;;;18.90;55.70;;;;;;5020442;28;20196;-70
2023/03/31 03:37:27;;;;;;;1.70;1.60;;;18.90;55.70;;;;;;5001001;28;20203;-70
2023/03/31 03:39:53;;;;;;;1.60;1.50;;;18.90;55.70;;;;;;5004905;28;20212;-70
2023/03/31 03:42:19;;;;;;;1.55;1.45;;;18.90;55.70;;;;;;5007712;28;20222;-70
2023/03/31 03:44:44;;;;;;;1.73;1.50;;;18.90;55.70;;;;;;5001790;28;20198;-70
2023/03/31 03:47:10;;;;;;;2.28;1.60;;;19.00;55.70;;;;;;5027700;28;20206;-70
2023/03/31 03:49:36;;;;;;;2.97;1.60;;;18.90;55.70;;;;;;4999811;28;20212;-70
2023/03/31 03:52:02;;;;;;;1.63;1.50;;;18.90;55.70;;;;;;5012339;28;20198;-70
2023/03/31 03:54:28;;;;;;;1.88;1.50;;;18.90;55.70;;;;;;5016157;28;20222;-70
2023/03/31 03:56:54;;;;;;;1.92;1.40;;;18.90;55.70;;;;;;5004378;28;20251;-70
2023/03/31 03:59:20;;;;;;;2.08;1.80;;;18.90;55.70;;;;;;5008685;28;20219;-71
2023/03/31 04:01:46;;;;;;;1.92;1.30;;;18.90;55.70;;;;;;5017462;28;20191;-70
2023/03/31 04:04:11;;;;;;;2.30;1.73;;;18.90;55.70;;;;;;5019188;28;20625;-70
2023/03/31 04:06:37;;;;;;;2.30;1.40;;;18.90;55.70;;;;;;5001958;28;20247;-70
2023/03/31 04:09:03;;;;;;;2.67;1.83;;;18.90;55.70;;;;;;5020479;28;20199;-70
2023/03/31 04:11:29;;;;;;;1.50;1.40;;;18.90;55.70;;;;;;5000253;28;20674;-71
2023/03/31 04:13:55;;;;;;;1.90;1.40;;;18.90;55.70;;;;;;5016824;28;20194;-71
2023/03/31 04:16:21;;;;;;;1.50;1.40;;;18.90;55.70;;;;;;5012184;28;20223;-71
2023/03/31 04:18:47;;;;;;;1.85;1.25;;;18.90;55.80;;;;;;5014315;28;20188;-70
2023/03/31 04:21:21;;;;;;;2.75;1.70;;;18.90;55.70;;;;;;5001139;28;20278;-71
2023/03/31 04:23:49;;;;;;;2.30;1.50;;;18.90;55.70;;;;;;4982304;28;20191;-71
2023/03/31 04:26:25;;;;;;;1.60;1.50;;;18.90;55.70;;;;;;5003868;28;20200;-72
2023/03/31 04:28:51;;;;;;;1.88;1.40;;;18.90;55.70;;;;;;4982328;28;20196;-71
2023/03/31 04:31:25;;;;;;;1.50;1.40;;;18.90;55.70;;;;;;5023058;28;20217;-71
2023/03/31 04:33:54;;;;;;;3.28;1.90;;;18.90;55.70;;;;;;4998735;28;20183;-71
2023/03/31 04:36:21;;;;;;;1.83;1.73;;;18.90;55.70;;;;;;4981615;28;20211;-71
2023/03/31 04:38:49;;;;;;;2.35;1.60;;;18.90;55.80;;;;;;5005117;28;20319;-70
2023/03/31 04:41:18;;;;;;;1.90;1.77;;;18.90;55.80;;;;;;5004441;28;20215;-70
2023/03/31 04:43:44;;;;;;;1.85;1.60;;;18.90;55.70;;;;;;5016713;28;20180;-71
2023/03/31 04:46:10;;;;;;;2.78;1.80;;;18.90;55.70;;;;;;5005889;28;20246;-71
2023/03/31 04:48:36;;;;;;;2.53;1.55;;;18.90;55.80;;;;;;5014508;28;20240;-71
2023/03/31 04:51:01;;;;;;;1.38;1.20;;;18.90;55.80;;;;;;5001508;28;20206;-71
2023/03/31 04:53:27;;;;;;;1.88;1.35;;;18.90;55.80;;;;;;5006609;28;20202;-71
2023/03/31 04:55:53;;;;;;;2.03;1.70;;;18.90;55.80;;;;;;4982057;28;20216;-70
2023/03/31 04:58:19;;;;;;;1.80;1.70;;;18.90;55.80;;;;;;5003812;28;20192;-72
2023/03/31 05:00:45;;;;;;;2.00;1.80;;;18.90;55.80;;;;;;5014034;28;20216;-70
2023/03/31 05:03:10;;;;;;;2.88;1.30;;;18.90;55.80;;;;;;5000159;28;20188;-71
2023/03/31 05:05:36;;;;;;;1.88;1.63;;;18.90;55.80;;;;;;4996794;28;20184;-71
2023/03/31 05:08:03;;;;;;;2.10;2.00;;;18.90;55.80;;;;;;5005035;28;20238;-71
2023/03/31 05:10:30;;;;;;;3.03;1.77;;;18.90;55.80;;;;;;5004803;28;20220;-71
2023/03/31 05:12:56;;;;;;;2.08;1.88;;;18.90;55.80;;;;;;5007504;28;20269;-71
2023/03/31 05:15:25;;;;;;;1.83;1.70;;;18.90;55.80;;;;;;4998222;28;20283;-72
2023/03/31 05:17:51;;;;;;;2.33;1.90;;;18.90;55.80;;;;;;5006347;28;20238;-72
2023/03/31 05:20:19;;;;;;;2.67;1.90;;;18.90;55.90;;;;;;5007084;28;20688;-71
2023/03/31 05:22:45;;;;;;;2.45;1.58;;;18.90;55.80;;;;;;5003274;28;20195;-74
2023/03/31 05:25:17;;;;;;;1.63;1.50;;;18.90;55.80;;;;;;5008713;28;20211;-70
2023/03/31 05:27:49;;;;;;;1.90;1.70;;;18.90;55.80;;;;;;5020689;28;20198;-72
2023/03/31 05:30:16;;;;;;;2.00;1.80;;;18.90;55.80;;;;;;4999070;28;20278;-71
2023/03/31 05:32:43;;;;;;;2.10;1.90;;;18.90;56.50;;;;;;5002603;28;20283;-71
2023/03/31 05:35:10;;;;;;;3.15;1.92;;;18.90;55.90;;;;;;5003986;28;20215;-71
2023/03/31 05:37:36;;;;;;;2.22;1.60;;;18.90;56.00;;;;;;4979599;28;20216;-71
2023/03/31 05:40:03;;;;;;;2.88;1.90;;;18.90;56.00;;;;;;4979575;28;20204;-71
2023/03/31 05:42:29;;;;;;;2.55;1.80;;;18.90;56.00;;;;;;4996168;28;20223;-71
2023/03/31 05:44:56;;;;;;;1.73;1.63;;;18.80;55.90;;;;;;4997823;28;20231;-71
2023/03/31 05:47:22;;;;;;;2.03;1.80;;;18.90;56.00;;;;;;5020707;28;20192;-70
2023/03/31 05:49:47;;;;;;;1.95;1.80;;;18.90;56.00;;;;;;4995287;28;20242;-70
2023/03/31 05:52:13;;;;;;;2.53;2.00;;;18.90;56.00;;;;;;4978126;28;20659;-70
2023/03/31 05:54:39;;;;;;;4.55;2.10;;;18.90;56.10;;;;;;5003252;28;20191;-71
2023/03/31 05:57:05;;;;;;;3.33;1.85;;;18.90;56.00;;;;;;4979768;28;20218;-70
2023/03/31 05:59:33;;;;;;;1.80;1.65;;;18.80;56.00;;;;;;5004613;22;20235;-69
2023/03/31 06:01:59;;;;;;;3.17;1.73;;;18.90;56.00;;;;;;5014555;28;20191;-69
2023/03/31 06:04:25;;;;;;;1.80;1.70;;;18.80;56.00;;;;;;5030864;28;20194;-71
2023/03/31 06:06:50;;;;;;;2.95;1.88;;;18.90;56.00;;;;;;5032106;28;20195;-69
2023/03/31 06:09:17;;;;;;;2.65;2.00;;;18.90;56.00;;;;;;5014276;28;20199;-69
2023/03/31 06:11:43;;;;;;;2.40;1.90;;;18.80;56.00;;;;;;5011732;28;20195;-69
2023/03/31 06:14:08;;;;;;;1.80;1.70;;;18.90;56.00;;;;;;5002786;28;20188;-68
2023/03/31 06:16:34;;;;;;;2.38;2.17;;;18.90;56.00;;;;;;4995183;28;20223;-68
2023/03/31 06:19:00;;;;;;;1.90;1.80;;;18.80;56.00;;;;;;4978497;28;20187;-69
2023/03/31 06:21:26;;;;;;;2.03;1.90;;;18.90;56.00;;;;;;4978483;28;20211;-69
2023/03/31 06:23:54;;;;;;;2.67;1.60;;;18.90;56.10;;;;;;4978340;28;20195;-69
2023/03/31 06:26:21;;;;;;;2.25;2.05;;;18.90;56.00;;;;;;5010297;28;20318;-69
2023/03/31 06:28:47;;;;;;;2.63;1.80;;;18.80;56.00;;;;;;5011891;28;20220;-68
2023/03/31 06:31:18;;;;;;;2.35;2.15;;;18.80;56.00;;;;;;4978145;28;20223;-69
2023/03/31 06:33:44;;;;;;;2.28;2.08;;;18.80;56.00;;;;;;4970627;28;20180;-69
2023/03/31 06:36:13;;;;;;;2.88;2.22;;;18.80;56.00;;;;;;5002401;28;20766;-69
2023/03/31 06:38:40;;;;;;;2.28;2.00;;;18.80;56.00;;;;;;4994316;28;20200;-68
2023/03/31 06:41:08;;;;;;;2.35;1.98;;;18.90;56.00;;;;;;4994159;28;20235;-69
2023/03/31 06:43:34;;;;;;;2.58;1.98;;;18.80;56.00;;;;;;4994054;28;20667;-69
2023/03/31 06:46:00;;;;;;;2.33;1.58;;;18.90;56.10;;;;;;4978141;28;20246;-69
2023/03/31 06:48:27;;;;;;;2.40;2.10;;;18.90;56.00;;;;;;4978094;28;20679;-69
2023/03/31 06:50:53;;;;;;;2.15;1.85;;;18.90;56.00;;;;;;4976865;28;20258;-69
2023/03/31 06:53:21;;;;;;;2.22;1.92;;;18.90;56.00;;;;;;4981158;28;20342;-69
2023/03/31 06:55:47;;;;;;;2.33;1.90;;;18.80;56.00;;;;;;4973867;28;20205;-69
2023/03/31 06:58:13;;;;;;;1.88;1.73;;;18.80;56.00;;;;;;5007564;28;20188;-69
2023/03/31 07:00:39;;;;;;;1.85;1.65;;;18.90;56.00;;;;;;4994023;28;20212;-69
2023/03/31 07:03:07;;;;;;;2.00;1.83;;;18.80;56.00;;;;;;5011837;28;20188;-69
2023/03/31 07:05:33;;;;;;;1.90;1.80;;;18.90;56.10;;;;;;4993937;28;20184;-69
2023/03/31 07:07:59;;;;;;;2.10;1.90;;;18.80;56.00;;;;;;4994013;28;20590;-69
2023/03/31 07:10:29;;;;;;;2.22;1.60;;;18.90;56.10;;;;;;4977696;28;20222;-69
2023/03/31 07:12:54;;;;;;;1.95;1.70;;;18.90;56.00;;;;;;4979379;28;20200;-69
2023/03/31 07:15:21;;;;;;;2.35;1.98;;;18.90;56.00;;;;;;4996906;28;20198;-68
2023/03/31 07:17:49;;;;;;;3.08;1.80;;;18.90;56.10;;;;;;4994026;28;20231;-69
2023/03/31 07:20:17;;;;;;;2.55;1.83;;;18.80;56.00;;;;;;4993998;28;20216;-69
2023/03/31 07:22:45;;;;;;;3.78;2.42;;;18.90;56.10;;;;;;4977735;28;20575;-69
2023/03/31 07:25:14;;;;;;;1.80;1.70;;;18.90;56.10;;;;;;4977546;28;20346;-69
2023/03/31 07:27:40;;;;;;;2.25;1.70;;;18.90;56.70;;;;;;5010176;28;20579;-70
2023/03/31 07:30:11;;;;;;;2.30;2.05;;;18.90;56.10;;;;;;5011458;28;20216;-69
2023/03/31 07:32:40;;;;;;;2.25;2.05;;;18.90;56.10;;;;;;4977879;28;20200;-69
2023/03/31 07:35:10;;;;;;;2.42;2.00;;;18.90;56.10;;;;;;4977969;28;20192;-68
2023/03/31 07:37:43;;;;;;;2.72;1.70;;;18.90;56.10;;;;;;5011368;28;20680;-69
2023/03/31 07:40:14;;;;;;;3.55;2.13;;;18.90;56.10;;;;;;5011237;28;20224;-69
2023/03/31 07:42:41;;;;;;;3.40;2.00;;;18.90;56.10;;;;;;4993847;28;20196;-69
2023/03/31 07:45:08;;;;;;;1.77;1.67;;;18.90;56.10;;;;;;4977601;28;20293;-70
2023/03/31 07:47:35;;;;;;;1.90;1.70;;;18.90;56.10;;;;;;4993687;28;20242;-69
2023/03/31 07:50:00;;;;;;;1.65;1.52;;;18.90;56.10;;;;;;4977369;28;20231;-69
2023/03/31 07:52:26;;;;;;;1.95;1.50;;;18.90;56.00;;;;;;5015784;28;20193;-69
2023/03/31 07:54:52;;;;;;;2.45;1.70;;;18.90;56.00;;;;;;5009957;28;20196;-69
2023/03/31 07:57:18;;;;;;;1.67;1.52;;;18.90;56.00;;;;;;4980082;28;20223;-69
2023/03/31 07:59:45;;;;;;;2.15;1.95;;;18.90;56.00;;;;;;5004706;28;20220;-69
2023/03/31 08:02:14;;;;;;;2.00;1.80;;;18.90;56.00;;;;;;4997441;28;20220;-69
2023/03/31 08:04:43;;;;;;;2.00;1.70;;;18.90;56.10;;;;;;4997083;28;20242;-69
2023/03/31 08:07:11;;;;;;;1.83;1.58;;;18.90;56.00;;;;;;5014735;28;20194;-69
2023/03/31 08:09:38;;;;;;;1.50;1.40;;;18.90;56.00;;;;;;5013133;28;20212;-69
2023/03/31 08:12:05;;;;;;;2.13;1.60;;;18.90;56.00;;;;;;4997240;28;20259;-70
2023/03/31 08:14:31;;;;;;;1.60;1.50;;;18.90;56.00;;;;;;5014299;28;20242;-69
2023/03/31 08:16:58;;;;;;;1.48;1.33;;;19.00;56.00;;;;;;5003678;28;20208;-69
2023/03/31 08:19:26;;;;;;;1.65;1.50;;;19.00;56.00;;;;;;5014042;28;20192;-69
2023/03/31 08:21:51;;;;;;;1.30;1.20;;;19.00;55.90;;;;;;5004352;28;20250;-69
2023/03/31 08:24:18;;;;;;;1.33;1.23;;;19.10;55.90;;;;;;4980567;28;20196;-69
2023/03/31 08:26:44;;;;;;;1.85;1.40;;;19.10;55.90;;;;;;4980197;28;20196;-68
2023/03/31 08:29:10;;;;;;;1.70;1.60;;;19.20;55.90;;;;;;4996806;28;20196;-69
2023/03/31 08:31:36;;;;;;;1.75;1.65;;;19.10;55.90;;;;;;4980391;28;20319;-69
2023/03/31 08:34:03;;;;;;;2.13;1.50;;;19.20;55.90;;;;;;4980680;28;20195;-69
2023/03/31 08:36:29;;;;;;;1.50;1.40;;;19.20;55.90;;;;;;5014029;28;20250;-71
2023/03/31 08:38:55;;;;;;;1.52;1.38;;;19.20;55.90;;;;;;4976875;28;20217;-69
2023/03/31 08:42:12;;;;;;;1.45;1.30;;;19.20;55.90;;;;;;4992872;28;20255;-69
2023/03/31 08:45:06;;;;;;;3.15;1.40;;;19.20;55.90;;;;;;5003175;28;20207;-69
2023/03/31 08:47:36;;;;;;;2.38;1.65;;;19.20;55.90;;;;;;4979973;28;20192;-69
2023/03/31 08:50:13;;;;;;;1.30;1.20;;;19.20;55.90;;;;;;4993011;28;20212;-69
2023/03/31 08:52:48;;;;;;;1.40;1.27;;;19.30;56.00;;;;;;5011229;28;20739;-69
2023/03/31 08:55:27;;;;;;;1.40;1.30;;;19.30;56.00;;;;;;4996314;28;20195;-69
2023/03/31 08:58:06;;;;;;;1.50;1.27;;;19.30;56.00;;;;;;5012819;28;20230;-69
2023/03/31 09:00:49;;;;;;;1.27;1.17;;;19.30;56.00;;;;;;4995775;28;20226;-69
2023/03/31 09:03:42;;;;;;;1.50;1.40;;;19.30;56.00;;;;;;4995915;28;20184;-68
2023/03/31 09:06:17;;;;;;;1.20;1.10;;;19.30;56.10;;;;;;4996078;28;20195;-69
2023/03/31 09:08:43;;;;;;;1.40;1.27;;;19.30;56.00;;;;;;4995986;28;20199;-69
2023/03/31 09:11:21;;;;;;;1.10;1.00;;;19.30;56.10;;;;;;4996357;28;20208;-70
2023/03/31 09:14:01;;;;;;;1.33;1.23;;;19.30;56.00;;;;;;4996762;28;20188;-70
2023/03/31 09:17:24;;;;;;;3.53;1.52;;;19.30;56.10;;;;;;4996392;28;20225;-71
2023/03/31 09:20:07;;;;;;;1.50;1.40;;;19.30;56.50;;;;;;4979822;28;20208;-70
2023/03/31 09:22:44;;;;;;;1.50;1.40;;;19.30;56.10;;;;;;4980232;28;20226;-70
2023/03/31 09:25:35;;;;;;;1.30;1.20;;;19.30;56.10;;;;;;4979660;28;20188;-70
2023/03/31 09:28:09;;;;;;;1.40;1.30;;;19.30;56.10;;;;;;4980362;28;20710;-69
2023/03/31 09:30:37;;;;;;;2.28;1.27;;;19.30;56.20;;;;;;4979723;28;20207;-71
2023/03/31 09:33:32;;;;;;;1.30;1.20;;;19.30;56.10;;;;;;4996420;28;20624;-69
2023/03/31 09:36:14;;;;;;;1.20;1.10;;;19.30;56.20;;;;;;5012406;28;20216;-71
2023/03/31 09:38:44;;;;;;;1.77;1.13;;;19.30;56.10;;;;;;5013779;28;20200;-71
2023/03/31 09:41:12;;;;;;;2.63;1.30;;;19.30;56.10;;;;;;5012335;28;20243;-71
2023/03/31 09:43:40;;;;;;;1.25;1.10;;;19.30;56.20;;;;;;4995874;28;20184;-70
2023/03/31 09:46:37;;;;;;;2.97;1.20;;;19.30;56.20;;;;;;4996165;28;20246;-70
2023/03/31 09:49:14;;;;;;;1.60;1.20;;;19.30;56.10;;;;;;5013630;28;20227;-70
2023/03/31 09:51:47;;;;;;;1.30;1.20;;;19.30;56.10;;;;;;5012200;28;20746;-71
2023/03/31 09:54:28;;;;;;;2.10;1.10;;;19.30;56.20;;;;;;5012451;28;20204;-70
2023/03/31 09:56:54;;;;;;;1.15;1.05;;;19.30;56.20;;;;;;5012109;28;20277;-70
2023/03/31 09:59:31;;;;;;;1.55;1.20;;;19.30;56.20;;;;;;4995376;28;20577;-71
2023/03/31 10:02:01;;;;;;;1.35;1.20;;;19.30;56.10;;;;;;4996893;28;20172;-71
2023/03/31 10:04:32;;;;;;;1.98;1.15;;;19.30;56.30;;;;;;4995866;28;20271;-71
2023/03/31 10:07:02;;;;;;;1.20;1.10;;;19.30;56.20;;;;;;5027622;28;20180;-70
2023/03/31 10:09:36;;;;;;;1.60;1.00;;;19.30;56.10;;;;;;5016654;28;20275;-70
2023/03/31 10:12:07;;;;;;;1.30;1.20;;;19.30;56.20;;;;;;4994471;28;20176;-70
2023/03/31 10:14:50;;;;;;;1.63;1.20;;;19.30;56.20;;;;;;4995395;28;20226;-70
2023/03/31 10:17:22;;;;;;;2.03;1.80;;;19.30;56.30;;;;;;4975751;28;20213;-71
2023/03/31 10:19:56;;;;;;;2.08;1.90;;;19.30;56.30;;;;;;4975546;28;20208;-70
2023/03/31 10:22:22;;;;;;;2.05;1.70;;;19.30;56.20;;;;;;4979094;28;20196;-70
2023/03/31 10:28:54;;;;;;;1.95;1.77;;;19.30;56.20;;;;;;5014426;28;20198;-69
2023/03/31 10:31:32;;;;;;;2.20;2.00;;;19.30;56.20;;;;;;5003186;28;20239;-69
2023/03/31 10:34:05;;;;;;;3.30;3.03;;;19.30;56.10;;;;;;4995875;28;20191;-69
2023/03/31 10:36:31;;;;;;;2.63;2.42;;;19.30;56.30;;;;;;4995001;28;20592;-69
2023/03/31 10:38:57;;;;;;;3.38;3.03;;;19.30;56.00;;;;;;4978661;28;20215;-69
2023/03/31 10:41:28;;;;;;;3.22;3.00;;;19.30;56.00;;;;;;4978577;28;20202;-69
2023/03/31 10:44:01;;;;;;;3.80;3.50;;;19.30;56.40;;;;;;5000870;28;20254;-70
2023/03/31 10:46:47;;;;;;;3.80;3.50;;;19.30;56.10;;;;;;4997910;28;20250;-68
2023/03/31 10:49:20;;;;;;;3.90;3.60;;;19.30;56.00;;;;;;4991065;28;20206;-69
2023/03/31 10:51:55;;;;;;;4.10;3.80;;;19.30;55.90;;;;;;4978958;28;20196;-69
2023/03/31 10:54:21;;;;;;;4.20;3.90;;;19.30;55.90;;;;;;5011301;28;20286;-70
2023/03/31 10:56:51;;;;;;;8.60;7.72;;;19.40;56.00;;;;;;5001371;28;20299;-69
2023/03/31 10:59:41;;;;;;;7.80;6.50;;;19.30;56.60;;;;;;5012103;28;20184;-71
2023/03/31 11:02:47;;;;;;;5.63;5.13;;;19.30;56.40;;;;;;4994799;28;20286;-71
2023/03/31 11:05:26;;;;;;;4.20;3.90;;;19.40;56.20;;;;;;5012203;28;20183;-69
2023/03/31 11:08:24;;;;;;;5.05;4.65;;;19.40;56.00;;;;;;4994366;28;20195;-70
2023/03/31 11:11:09;;;;;;;5.03;4.63;;;19.30;55.70;;;;;;4982977;28;20220;-67
2023/03/31 11:14:01;;;;;;;5.60;5.00;;;19.30;55.80;;;;;;4978204;28;20196;-70
2023/03/31 11:17:07;;;;;;;5.63;5.13;;;19.30;55.60;;;;;;4990280;28;20647;-69
2023/03/31 11:20:37;;;;;;;5.38;4.90;;;19.30;55.70;;;;;;4994131;28;20270;-68
2023/03/31 11:23:45;;;;;;;5.78;5.28;;;19.40;56.40;;;;;;4935587;29;20262;-69
2023/03/31 11:26:26;;;;;;;6.00;5.55;;;19.40;55.70;;;;;;4941638;29;20194;-69
2023/03/31 11:29:19;;;;;;;5.43;4.95;;;19.40;55.80;;;;;;4993524;28;20265;-70
2023/03/31 11:32:14;;;;;;;6.13;5.63;;;19.40;55.90;;;;;;4980005;28;20672;-69
2023/03/31 11:34:58;;;;;;;6.15;5.55;;;19.40;55.50;;;;;;5014316;28;20203;-70
2023/03/31 11:37:56;;;;;;;5.90;5.15;;;19.40;55.50;;;;;;4992396;28;20212;-68
2023/03/31 11:40:55;;;;;;;5.95;5.35;;;19.40;55.50;;;;;;4977592;28;20259;-69
2023/03/31 11:43:33;;;;;;;6.25;5.65;;;19.40;55.80;;;;;;4978871;28;20192;-70
2023/03/31 11:46:14;;;;;;;6.05;5.55;;;19.30;56.40;;;;;;4985998;28;20193;-68
2023/03/31 11:49:00;;;;;;;6.47;5.88;;;19.30;56.40;;;;;;4970410;28;20193;-69
2023/03/31 11:51:54;;;;;;;6.15;5.55;;;19.40;56.20;;;;;;5019030;28;20239;-70
2023/03/31 11:54:40;;;;;;;6.45;5.90;;;19.40;56.00;;;;;;4978651;28;20226;-68
2023/03/31 11:57:28;;;;;;;5.75;5.25;;;19.40;56.30;;;;;;4990497;28;20212;-70
2023/03/31 12:00:06;;;;;;;7.30;6.60;;;19.40;55.80;;;;;;4997725;28;20216;-69
2023/03/31 12:02:59;;;;;;;6.45;5.95;;;19.30;56.50;;;;;;5049759;22;20243;-69
2023/03/31 12:05:30;;;;;;;5.95;5.43;;;19.30;56.10;;;;;;5016546;28;20197;-69
2023/03/31 12:08:09;;;;;;;6.53;6.03;;;19.40;56.50;;;;;;5016961;28;20191;-69
2023/03/31 12:10:37;;;;;;;5.68;5.28;;;19.40;56.10;;;;;;5034625;28;20193;-69
2023/03/31 12:13:32;;;;;;;6.82;6.22;;;19.40;56.10;;;;;;5013821;28;20215;-69
2023/03/31 12:16:16;;;;;;;6.95;5.72;;;19.40;56.20;;;;;;5013865;28;20200;-69
2023/03/31 12:19:02;;;;;;;6.07;5.47;;;19.40;56.10;;;;;;5013806;28;20183;-69
2023/03/31 12:21:31;;;;;;;6.53;5.20;;;19.40;56.10;;;;;;5013687;28;20222;-69
2023/03/31 12:23:57;;;;;;;7.60;5.60;;;19.40;56.00;;;;;;5014923;28;20168;-72
2023/03/31 12:26:57;;;;;;;6.82;5.40;;;19.40;56.00;;;;;;5013122;28;20199;-72
2023/03/31 12:29:43;;;;;;;6.07;5.47;;;19.40;56.10;;;;;;4977538;28;20196;-71
2023/03/31 12:32:23;;;;;;;5.90;5.40;;;19.40;56.00;;;;;;4996738;28;20207;-71
2023/03/31 12:35:00;;;;;;;5.45;5.05;;;19.40;55.90;;;;;;5013692;28;20218;-71
2023/03/31 12:38:14;;;;;;;5.38;4.95;;;19.40;56.00;;;;;;5013038;28;20202;-72
2023/03/31 12:40:56;;;;;;;5.38;4.97;;;19.40;56.00;;;;;;5023758;28;20191;-72
2023/03/31 12:43:56;;;;;;;5.47;5.07;;;19.40;55.90;;;;;;4996989;28;20202;-71
2023/03/31 12:46:45;;;;;;;5.10;4.70;;;19.40;56.00;;;;;;4991176;28;20200;-72
2023/03/31 12:49:31;;;;;;;5.85;5.35;;;19.40;55.80;;;;;;5013033;28;20196;-72
2023/03/31 12:52:01;;;;;;;5.32;4.93;;;19.40;55.80;;;;;;5012893;28;20216;-72
2023/03/31 12:54:57;;;;;;;5.57;5.03;;;19.40;55.90;;;;;;4996941;28;20246;-71
2023/03/31 12:57:25;;;;;;;5.38;4.97;;;19.40;56.00;;;;;;5013817;28;20247;-71
2023/03/31 13:00:20;;;;;;;6.22;4.75;;;19.30;55.90;;;;;;4996557;28;20279;-72
2023/03/31 13:02:47;;;;;;;4.70;4.30;;;19.30;55.90;;;;;;4996182;28;20813;-72
2023/03/31 13:05:35;;;;;;;5.10;4.60;;;19.30;55.70;;;;;;5003228;28;20279;-72
2023/03/31 13:08:02;;;;;;;4.40;4.07;;;19.40;55.80;;;;;;5012761;28;20199;-72
2023/03/31 13:10:30;;;;;;;6.35;4.40;;;19.30;55.60;;;;;;4999663;28;20260;-71
2023/03/31 13:13:05;;;;;;;4.88;4.43;;;19.30;55.80;;;;;;5013705;28;20687;-72
2023/03/31 13:15:32;;;;;;;4.82;4.43;;;19.30;56.40;;;;;;5013742;28;20179;-72
2023/03/31 13:18:06;;;;;;;4.82;4.35;;;19.30;55.70;;;;;;5012846;28;20297;-72
2023/03/31 13:20:39;;;;;;;4.88;4.43;;;19.30;55.70;;;;;;5012383;28;20702;-72
2023/03/31 13:23:18;;;;;;;4.60;4.20;;;19.30;55.60;;;;;;4979544;28;20254;-72
2023/03/31 13:25:51;;;;;;;4.78;4.38;;;19.40;55.80;;;;;;5009534;28;20191;-72
2023/03/31 13:28:42;;;;;;;4.55;4.18;;;19.30;55.40;;;;;;5012004;28;20187;-71
2023/03/31 13:31:12;;;;;;;4.80;4.40;;;19.30;55.40;;;;;;4979321;28;20260;-72
2023/03/31 13:33:56;;;;;;;4.40;4.10;;;19.40;55.70;;;;;;5011996;28;20216;-72